Terminal Aerodrome Forecast
Issued by NWS

Home | Current Version | Previous Version | Text Only | Print | Product List | Glossary On
Versions: 1 2 3 4 5 6 7 8 9 10 11 12 13 14 15 16
000
FTUS41 KCAR 222339
TAFBHB
TAF
KBHB 222339Z 2300/2324 23007KT P6SM SCT110 BKN250
     FM230500 19003KT P6SM BKN080
     FM231000 19005KT P6SM BKN030
     FM231600 19006KT 5SM BR VCSH OVC015
     FM231800 19010KT 3SM BR VCSH OVC008=

USA.gov is the U.S. government's official web portal to all federal, state and local government web resources and services.